Algoma, Mississippi
Current Conditions -  °F | °C
As of 9:53 PM on Thursday 27 Nov 2014 (Local Time) from KTUP Reporting Station
Clear Clear  
Wind Chill: 26°   Ceiling: Unl
Heat Index: 32°   Visibility: 10mi
Dew Point: 27°   Wind: 7mph
Humidity: 82%   Direction: 70°ENE
Pressure: 30.48"   Gusts: NA
Location:  34.18°N, 89.03°W
Report Text: KTUP 280353Z 07006KT 10SM CLR 00/M03 A3048 RMK AO2 SLP323 T00001028 $
Loading
Personal Weather Stations






























Interactive Weather Map New forecast layout! Learn more

10-Day Weather Forecast

Advertisements
Track Severe Weather on mobile